createdAt,value
2018-12-18T00:01:07.642Z,4.10
2018-12-18T00:03:39.344Z,4.10
2018-12-18T00:06:06.453Z,4.20
2018-12-18T00:08:34.763Z,4.30
2018-12-18T00:11:03.255Z,4.40
2018-12-18T00:13:32.354Z,4.40
2018-12-18T00:16:00.606Z,4.40
2018-12-18T00:18:28.846Z,4.50
2018-12-18T00:20:57.158Z,4.60
2018-12-18T00:23:25.290Z,4.70
2018-12-18T00:25:53.431Z,4.70
2018-12-18T00:28:21.625Z,4.70
2018-12-18T00:30:49.723Z,4.80
2018-12-18T00:33:17.887Z,4.80
2018-12-18T00:35:46.405Z,4.80
2018-12-18T00:38:14.583Z,4.70
2018-12-18T00:40:42.718Z,4.70
2018-12-18T00:43:10.948Z,4.70
2018-12-18T00:45:39.635Z,4.80
2018-12-18T00:48:07.790Z,4.80
2018-12-18T00:50:36.291Z,4.90
2018-12-18T00:53:04.445Z,4.90
2018-12-18T00:55:32.921Z,4.90
2018-12-18T00:58:01.057Z,4.80
2018-12-18T01:00:29.200Z,4.90
2018-12-18T01:02:57.337Z,4.80
2018-12-18T01:05:25.516Z,4.70
2018-12-18T01:07:53.858Z,4.70
2018-12-18T01:10:22.141Z,4.70
2018-12-18T01:12:50.910Z,4.80
2018-12-18T01:15:19.033Z,4.80
2018-12-18T01:17:47.200Z,4.90
2018-12-18T01:20:15.673Z,5.00
2018-12-18T01:22:43.736Z,5.10
2018-12-18T01:25:11.901Z,5.10
2018-12-18T01:27:40.101Z,5.10
2018-12-18T01:30:08.283Z,5.10
2018-12-18T01:32:36.466Z,5.10
2018-12-18T01:35:05.026Z,5.10
2018-12-18T01:37:33.123Z,5.20
2018-12-18T01:40:01.223Z,5.20
2018-12-18T01:42:29.331Z,5.20
2018-12-18T01:44:57.466Z,5.20
2018-12-18T01:47:25.603Z,5.20
2018-12-18T01:49:53.843Z,5.30
2018-12-18T01:52:22.162Z,5.30
2018-12-18T01:54:50.314Z,5.40
2018-12-18T01:57:18.776Z,5.40
2018-12-18T01:59:46.944Z,5.40
2018-12-18T02:02:15.095Z,5.40
2018-12-18T02:04:43.399Z,5.40
2018-12-18T02:07:11.545Z,5.40
2018-12-18T02:09:39.712Z,5.40
2018-12-18T02:12:07.806Z,5.40
2018-12-18T02:14:35.914Z,5.40
2018-12-18T02:17:04.049Z,5.40
2018-12-18T02:19:32.585Z,5.40
2018-12-18T02:22:00.734Z,5.50
2018-12-18T02:24:28.790Z,5.50
2018-12-18T02:26:57.015Z,5.50
2018-12-18T02:29:25.105Z,5.50
2018-12-18T02:31:53.255Z,5.60
2018-12-18T02:34:21.401Z,5.60
2018-12-18T02:36:49.509Z,5.60
2018-12-18T02:39:18.789Z,5.60
2018-12-18T02:41:46.979Z,5.60
2018-12-18T02:44:15.110Z,5.60
2018-12-18T02:46:43.277Z,5.60
2018-12-18T02:49:11.447Z,5.50
2018-12-18T02:51:39.598Z,5.50
2018-12-18T02:54:07.872Z,5.40
2018-12-18T02:56:36.694Z,5.40
2018-12-18T02:59:05.224Z,5.50
2018-12-18T03:01:33.569Z,5.50
2018-12-18T03:04:01.862Z,5.50
2018-12-18T03:06:30.084Z,5.50
2018-12-18T03:08:58.206Z,5.50
2018-12-18T03:11:26.416Z,5.50
2018-12-18T03:13:54.563Z,5.50
2018-12-18T03:16:24.064Z,5.60
2018-12-18T03:18:52.953Z,5.60
2018-12-18T03:21:24.003Z,5.60
2018-12-18T03:23:52.149Z,5.60
2018-12-18T03:26:20.322Z,5.60
2018-12-18T03:28:48.437Z,5.60
2018-12-18T03:31:16.578Z,5.60
2018-12-18T03:33:44.701Z,5.60
2018-12-18T03:36:12.829Z,5.70
2018-12-18T03:38:41.182Z,5.70
2018-12-18T03:41:09.683Z,5.70
2018-12-18T03:43:37.774Z,5.70
2018-12-18T03:46:05.879Z,5.70
2018-12-18T03:48:33.980Z,5.70
2018-12-18T03:51:02.061Z,5.60
2018-12-18T03:53:30.434Z,5.60
2018-12-18T03:55:58.662Z,5.60
2018-12-18T03:58:26.783Z,5.60
2018-12-18T04:00:55.474Z,5.60
2018-12-18T04:03:23.618Z,5.60
2018-12-18T04:05:51.749Z,5.50
2018-12-18T04:08:20.013Z,5.50
2018-12-18T04:10:48.150Z,5.60
2018-12-18T04:13:16.307Z,5.60
2018-12-18T04:15:44.511Z,5.60
2018-12-18T04:18:12.669Z,5.70
2018-12-18T04:20:40.759Z,5.60
2018-12-18T04:23:09.006Z,5.60
2018-12-18T04:25:37.160Z,5.60
2018-12-18T04:31:14.499Z,5.50
2018-12-18T04:33:42.623Z,5.50
2018-12-18T04:36:10.807Z,5.50
2018-12-18T04:38:39.123Z,5.50
2018-12-18T04:41:07.278Z,5.60
2018-12-18T04:43:35.483Z,5.60
2018-12-18T04:46:04.158Z,5.60
2018-12-18T04:48:32.258Z,5.60
2018-12-18T04:51:00.430Z,5.60
2018-12-18T04:53:28.582Z,5.60
2018-12-18T04:55:56.726Z,5.60
2018-12-18T04:58:24.873Z,5.50
2018-12-18T05:00:53.222Z,5.50
2018-12-18T05:03:21.399Z,5.50
2018-12-18T05:05:49.554Z,5.50
2018-12-18T05:08:18.052Z,5.60
2018-12-18T05:10:46.231Z,5.60
2018-12-18T05:13:14.399Z,5.60
2018-12-18T05:15:43.053Z,5.60
2018-12-18T05:18:11.604Z,5.50
2018-12-18T05:20:39.786Z,5.50
2018-12-18T05:23:07.986Z,5.60
2018-12-18T05:25:36.186Z,5.60
2018-12-18T05:28:04.269Z,5.50
2018-12-18T05:30:32.573Z,5.50
2018-12-18T05:33:00.698Z,5.40
2018-12-18T05:35:28.849Z,5.40
2018-12-18T05:37:57.129Z,5.40
2018-12-18T05:40:25.276Z,5.30
2018-12-18T05:42:53.375Z,5.30
2018-12-18T05:45:21.628Z,5.30
2018-12-18T05:47:49.813Z,5.30
2018-12-18T05:50:17.905Z,5.40
2018-12-18T05:52:46.693Z,5.50
2018-12-18T05:55:14.922Z,5.50
2018-12-18T05:57:43.233Z,5.60
2018-12-18T06:00:11.548Z,5.60
2018-12-18T06:02:40.405Z,5.60
2018-12-18T06:05:08.685Z,5.60
2018-12-18T06:07:37.004Z,5.60
2018-12-18T06:10:05.637Z,5.60
2018-12-18T06:12:33.977Z,5.70
2018-12-18T06:15:02.514Z,5.80
2018-12-18T06:17:30.687Z,5.70
2018-12-18T06:19:58.861Z,5.70
2018-12-18T06:22:27.046Z,5.70
2018-12-18T06:24:55.229Z,5.70
2018-12-18T06:27:23.399Z,5.70
2018-12-18T06:29:51.534Z,5.70
2018-12-18T06:32:19.684Z,5.70
2018-12-18T06:34:47.800Z,5.70
2018-12-18T06:37:16.280Z,5.70
2018-12-18T06:39:44.467Z,5.70
2018-12-18T06:42:12.534Z,5.80
2018-12-18T06:44:41.007Z,5.80
2018-12-18T06:47:09.944Z,5.90
2018-12-18T06:49:44.523Z,5.90
2018-12-18T06:52:12.667Z,5.90
2018-12-18T06:54:40.986Z,5.90
2018-12-18T06:57:09.341Z,5.80
2018-12-18T06:59:37.485Z,5.80
2018-12-18T07:02:05.742Z,5.80
2018-12-18T07:04:34.125Z,5.80
2018-12-18T07:07:02.224Z,5.80
2018-12-18T07:09:30.342Z,5.80
2018-12-18T07:11:58.738Z,5.90
2018-12-18T07:14:26.911Z,5.90
2018-12-18T07:16:55.105Z,5.80
2018-12-18T07:19:23.309Z,5.80
2018-12-18T07:21:52.254Z,5.80
2018-12-18T07:24:20.583Z,5.80
2018-12-18T07:26:48.864Z,5.90
2018-12-18T07:29:17.009Z,5.90
2018-12-18T07:31:45.233Z,5.90
2018-12-18T07:34:13.693Z,5.90
2018-12-18T07:36:41.870Z,5.90
2018-12-18T07:39:10.052Z,5.90
2018-12-18T07:41:38.459Z,5.90
2018-12-18T07:44:06.665Z,6.00
2018-12-18T07:46:34.806Z,6.00
2018-12-18T07:49:02.988Z,6.00
2018-12-18T07:51:31.194Z,6.00
2018-12-18T07:53:59.231Z,6.10
2018-12-18T07:56:27.513Z,6.10
2018-12-18T07:58:55.658Z,6.10
2018-12-18T08:01:23.778Z,6.20
2018-12-18T08:03:52.288Z,6.20
2018-12-18T08:06:20.686Z,6.20
2018-12-18T08:08:48.864Z,6.20
2018-12-18T08:11:17.059Z,6.20
2018-12-18T08:13:45.260Z,6.20
2018-12-18T08:16:13.352Z,6.30
2018-12-18T08:18:41.492Z,6.30
2018-12-18T08:21:09.605Z,6.30
2018-12-18T08:23:37.766Z,6.30
2018-12-18T08:26:06.290Z,6.20
2018-12-18T08:28:34.409Z,6.20
2018-12-18T08:31:02.569Z,6.20
2018-12-18T08:33:30.985Z,6.30
2018-12-18T08:35:59.277Z,6.30
2018-12-18T08:38:27.421Z,6.40
2018-12-18T08:40:55.697Z,6.40
2018-12-18T08:43:23.858Z,6.40
2018-12-18T08:45:51.982Z,6.40
2018-12-18T08:48:20.418Z,6.40
2018-12-18T08:50:48.591Z,6.40
2018-12-18T08:53:16.705Z,6.40
2018-12-18T08:55:44.905Z,6.40
2018-12-18T08:58:13.017Z,6.40
2018-12-18T09:00:41.146Z,6.50
2018-12-18T09:03:09.272Z,6.50
2018-12-18T09:05:43.230Z,6.50
2018-12-18T09:08:07.957Z,6.50
2018-12-18T09:10:39.838Z,6.50
2018-12-18T09:13:06.309Z,6.60
2018-12-18T09:15:39.749Z,6.60
2018-12-18T09:18:07.924Z,6.70
2018-12-18T09:20:36.097Z,6.70
2018-12-18T09:23:04.208Z,6.70
2018-12-18T09:25:32.637Z,6.70
2018-12-18T09:28:00.799Z,6.80
2018-12-18T09:30:29.032Z,6.90
2018-12-18T09:32:57.289Z,7.00
2018-12-18T09:35:25.422Z,7.00
2018-12-18T09:37:59.347Z,7.10
2018-12-18T09:40:30.585Z,7.20
2018-12-18T09:43:04.342Z,7.30
2018-12-18T09:45:32.527Z,7.30
2018-12-18T09:48:00.637Z,7.30
2018-12-18T09:50:28.865Z,7.30
2018-12-18T09:52:57.018Z,7.30
2018-12-18T09:55:25.150Z,7.20
2018-12-18T09:57:58.817Z,7.20
2018-12-18T10:00:27.042Z,7.20
2018-12-18T10:02:55.200Z,7.20
2018-12-18T10:05:23.810Z,7.20
2018-12-18T10:07:51.974Z,7.20
2018-12-18T10:10:20.378Z,7.30
2018-12-18T10:12:56.612Z,7.40
2018-12-18T10:15:25.723Z,7.50
2018-12-18T10:17:53.983Z,7.50
2018-12-18T10:20:22.141Z,7.60
2018-12-18T10:22:50.316Z,7.70
2018-12-18T10:25:18.558Z,7.70
2018-12-18T10:27:46.709Z,7.70
2018-12-18T10:30:14.884Z,7.70
2018-12-18T10:32:43.038Z,7.60
2018-12-18T10:35:11.163Z,7.60
2018-12-18T10:37:39.305Z,7.50
2018-12-18T10:40:09.177Z,7.40
2018-12-18T10:42:37.326Z,7.30
2018-12-18T10:45:13.738Z,7.40
2018-12-18T10:47:38.633Z,7.40
2018-12-18T10:50:06.801Z,7.50
2018-12-18T10:52:34.892Z,7.60
2018-12-18T10:55:03.053Z,7.70
2018-12-18T10:57:31.265Z,7.70
2018-12-18T11:00:00.067Z,7.70
2018-12-18T11:02:28.230Z,7.80
2018-12-18T11:04:56.351Z,7.80
2018-12-18T11:07:24.554Z,7.80
2018-12-18T11:09:52.670Z,7.90
2018-12-18T11:12:26.922Z,8.00
2018-12-18T11:14:56.093Z,8.00
2018-12-18T11:17:24.133Z,7.90
2018-12-18T11:19:52.394Z,7.90
2018-12-18T11:22:20.488Z,8.00
2018-12-18T11:24:48.956Z,8.10
2018-12-18T11:27:17.042Z,8.20
2018-12-18T11:29:45.148Z,8.30
2018-12-18T11:32:13.321Z,8.50
2018-12-18T11:34:41.501Z,8.50
2018-12-18T11:37:09.682Z,8.60
2018-12-18T11:39:38.382Z,8.70
2018-12-18T11:42:06.525Z,8.90
2018-12-18T11:44:34.747Z,9.00
2018-12-18T11:47:03.058Z,9.10
2018-12-18T11:49:31.198Z,9.10
2018-12-18T11:51:59.371Z,9.20
2018-12-18T11:54:27.542Z,9.20
2018-12-18T11:56:55.671Z,9.20
2018-12-18T11:59:23.849Z,9.20
2018-12-18T12:01:52.249Z,9.20
2018-12-18T12:04:20.394Z,9.00
2018-12-18T12:06:48.514Z,8.90
2018-12-18T12:09:17.068Z,8.80
2018-12-18T12:11:45.253Z,8.60
2018-12-18T12:14:13.856Z,8.40
2018-12-18T12:16:42.134Z,8.20
2018-12-18T12:19:10.277Z,8.10
2018-12-18T12:21:38.383Z,8.00
2018-12-18T12:24:06.563Z,8.00
2018-12-18T12:26:34.918Z,7.80
2018-12-18T12:29:03.051Z,7.80
2018-12-18T12:31:31.451Z,7.70
2018-12-18T12:33:59.549Z,7.70
2018-12-18T12:36:29.758Z,7.60
2018-12-18T12:38:57.879Z,7.50
2018-12-18T12:41:26.040Z,7.50
2018-12-18T12:43:54.208Z,7.50
2018-12-18T12:46:22.504Z,7.50
2018-12-18T12:48:55.610Z,7.50
2018-12-18T12:51:24.152Z,7.50
2018-12-18T12:53:52.412Z,7.50
2018-12-18T12:56:20.697Z,7.60
2018-12-18T12:58:49.214Z,7.60
2018-12-18T13:01:17.425Z,7.80
2018-12-18T13:03:45.514Z,8.00
2018-12-18T13:06:13.651Z,8.20
2018-12-18T13:08:41.908Z,8.30
2018-12-18T13:11:10.346Z,8.20
2018-12-18T13:13:38.591Z,7.90
2018-12-18T13:16:07.126Z,7.80
2018-12-18T13:18:35.218Z,7.90
2018-12-18T13:21:03.529Z,8.00
2018-12-18T13:23:31.926Z,8.10
2018-12-18T13:26:00.006Z,8.20
2018-12-18T13:28:28.687Z,8.20
2018-12-18T13:30:56.821Z,8.20
2018-12-18T13:33:24.989Z,8.10
2018-12-18T13:35:53.322Z,8.00
2018-12-18T13:38:21.507Z,8.10
2018-12-18T13:40:49.634Z,8.10
2018-12-18T13:43:17.789Z,8.20
2018-12-18T13:45:45.956Z,8.10
2018-12-18T13:48:14.122Z,8.00
2018-12-18T13:50:42.532Z,7.90
2018-12-18T13:53:10.714Z,7.80
2018-12-18T13:55:38.885Z,7.70
2018-12-18T13:58:07.557Z,7.70
2018-12-18T14:00:35.777Z,7.60
2018-12-18T14:03:04.131Z,7.50
2018-12-18T14:05:32.324Z,7.40
2018-12-18T14:08:00.577Z,7.30
2018-12-18T14:10:28.916Z,7.30
2018-12-18T14:12:57.782Z,7.20
2018-12-18T14:15:25.938Z,7.20
2018-12-18T14:17:54.421Z,7.20
2018-12-18T14:20:22.653Z,7.30
2018-12-18T14:22:50.871Z,7.40
2018-12-18T14:25:19.008Z,7.40
2018-12-18T14:27:47.400Z,7.30
2018-12-18T14:30:15.472Z,7.20
2018-12-18T14:32:43.625Z,7.10
2018-12-18T14:35:11.927Z,7.10
2018-12-18T14:37:40.065Z,7.00
2018-12-18T14:40:08.369Z,6.90
2018-12-18T14:42:36.658Z,6.90
2018-12-18T14:45:05.418Z,6.90
2018-12-18T14:47:33.577Z,6.90
2018-12-18T14:50:01.997Z,6.80
2018-12-18T14:52:30.285Z,6.80
2018-12-18T14:54:58.333Z,6.80
2018-12-18T14:57:26.902Z,6.70
2018-12-18T14:59:54.968Z,6.60
2018-12-18T15:02:23.146Z,6.60
2018-12-18T15:04:51.336Z,6.50
2018-12-18T15:07:19.502Z,6.40
2018-12-18T15:09:48.246Z,6.30
2018-12-18T15:12:16.674Z,6.30
2018-12-18T15:14:44.850Z,6.20
2018-12-18T15:17:13.108Z,6.20
2018-12-18T15:19:41.488Z,6.10
2018-12-18T15:22:09.633Z,6.10
2018-12-18T15:24:37.975Z,6.10
2018-12-18T15:27:06.429Z,6.00
2018-12-18T15:29:35.821Z,6.00
2018-12-18T15:32:04.546Z,5.90
2018-12-18T15:34:32.851Z,5.80
2018-12-18T15:37:01.041Z,5.80
2018-12-18T15:39:29.219Z,5.80
2018-12-18T15:41:57.510Z,5.80
2018-12-18T15:44:25.646Z,5.70
2018-12-18T15:46:53.825Z,5.70
2018-12-18T15:49:21.926Z,5.70
2018-12-18T15:51:50.019Z,5.60
2018-12-18T15:54:18.685Z,5.60
2018-12-18T15:56:46.813Z,5.60
2018-12-18T15:59:15.261Z,5.50
2018-12-18T16:01:43.506Z,5.50
2018-12-18T16:04:11.627Z,5.50
2018-12-18T16:06:39.767Z,5.50
2018-12-18T16:09:08.760Z,5.40
2018-12-18T16:11:36.885Z,5.40
2018-12-18T16:14:05.010Z,5.40
2018-12-18T16:16:33.282Z,5.40
2018-12-18T16:19:01.474Z,5.50
2018-12-18T16:21:29.972Z,5.40
2018-12-18T16:23:58.297Z,5.30
2018-12-18T16:26:26.569Z,5.30
2018-12-18T16:28:54.717Z,5.30
2018-12-18T16:31:22.930Z,5.20
2018-12-18T16:33:51.054Z,5.20
2018-12-18T16:36:19.191Z,5.10
2018-12-18T16:38:47.347Z,5.10
2018-12-18T16:41:15.482Z,5.10
2018-12-18T16:43:44.230Z,5.00
2018-12-18T16:46:13.319Z,5.00
2018-12-18T16:48:41.426Z,4.90
2018-12-18T16:51:10.136Z,4.90
2018-12-18T16:53:38.855Z,4.90
2018-12-18T16:56:07.833Z,4.80
2018-12-18T16:58:36.005Z,4.80
2018-12-18T17:01:04.658Z,4.80
2018-12-18T17:03:32.773Z,4.70
2018-12-18T17:06:02.470Z,4.70
2018-12-18T17:08:32.151Z,4.70
2018-12-18T17:11:00.757Z,4.60
2018-12-18T17:13:28.892Z,4.60
2018-12-18T17:15:57.150Z,4.60
2018-12-18T17:18:25.357Z,4.60
2018-12-18T17:20:53.477Z,4.60
2018-12-18T17:23:21.829Z,4.50
2018-12-18T17:25:50.002Z,4.50
2018-12-18T17:28:18.596Z,4.50
2018-12-18T17:30:46.726Z,4.50
2018-12-18T17:33:15.061Z,4.50
2018-12-18T17:35:43.414Z,4.40
2018-12-18T17:38:11.697Z,4.40
2018-12-18T17:40:40.534Z,4.40
2018-12-18T17:43:12.237Z,4.30
2018-12-18T17:45:40.581Z,4.30
2018-12-18T17:48:08.867Z,4.30
2018-12-18T17:50:37.091Z,4.20
2018-12-18T17:53:05.548Z,4.20
2018-12-18T17:55:33.932Z,4.20
2018-12-18T17:58:02.098Z,4.20
2018-12-18T18:00:30.403Z,4.20
2018-12-18T18:02:58.565Z,4.10
2018-12-18T18:05:26.625Z,4.10
2018-12-18T18:07:55.213Z,4.10
2018-12-18T18:10:23.513Z,4.10
2018-12-18T18:12:53.606Z,4.00
2018-12-18T18:15:22.453Z,4.00
2018-12-18T18:17:50.502Z,4.00
2018-12-18T18:20:19.044Z,4.00
2018-12-18T18:22:47.264Z,4.00
2018-12-18T18:25:15.693Z,3.90
2018-12-18T18:27:43.974Z,3.90
2018-12-18T18:30:12.109Z,3.90
2018-12-18T18:32:40.229Z,3.90
2018-12-18T18:35:08.487Z,3.90
2018-12-18T18:37:36.716Z,3.80
2018-12-18T18:40:06.312Z,3.80
2018-12-18T18:42:34.638Z,3.80
2018-12-18T18:45:02.915Z,3.80
2018-12-18T18:47:31.407Z,3.80
2018-12-18T18:49:59.685Z,3.70
2018-12-18T18:52:28.318Z,3.70
2018-12-18T18:54:56.471Z,3.70
2018-12-18T18:57:24.630Z,3.70
2018-12-18T18:59:52.721Z,3.70
2018-12-18T19:02:21.380Z,3.70
2018-12-18T19:04:49.547Z,3.70
2018-12-18T19:07:17.653Z,3.70
2018-12-18T19:09:45.796Z,3.70
2018-12-18T19:12:13.885Z,3.70
2018-12-18T19:14:42.031Z,3.70
2018-12-18T19:17:10.238Z,3.70
2018-12-18T19:19:38.370Z,3.70
2018-12-18T19:22:06.500Z,3.60
2018-12-18T19:24:34.670Z,3.60
2018-12-18T19:27:03.257Z,3.60
2018-12-18T19:29:31.328Z,3.50
2018-12-18T19:31:59.572Z,3.50
2018-12-18T19:34:27.827Z,3.50
2018-12-18T19:36:56.001Z,3.40
2018-12-18T19:39:24.399Z,3.50
2018-12-18T19:41:52.521Z,3.50
2018-12-18T19:44:20.621Z,3.50
2018-12-18T19:46:49.144Z,3.50
2018-12-18T19:49:17.348Z,3.40
2018-12-18T19:51:45.454Z,3.40
2018-12-18T19:54:13.939Z,3.40
2018-12-18T19:56:42.061Z,3.40
2018-12-18T19:59:10.917Z,3.40
2018-12-18T20:01:39.257Z,3.30
2018-12-18T20:04:07.391Z,3.40
2018-12-18T20:06:35.520Z,3.30
2018-12-18T20:09:06.513Z,3.30
2018-12-18T20:11:34.792Z,3.30
2018-12-18T20:14:02.927Z,3.20
2018-12-18T20:16:31.169Z,3.20
2018-12-18T20:18:59.295Z,3.30
2018-12-18T20:21:27.564Z,3.30
2018-12-18T20:23:56.114Z,3.30
2018-12-18T20:26:24.261Z,3.30
2018-12-18T20:28:52.670Z,3.20
2018-12-18T20:31:21.501Z,3.20
2018-12-18T20:33:49.714Z,3.10
2018-12-18T20:36:17.872Z,3.10
2018-12-18T20:38:46.505Z,3.10
2018-12-18T20:41:14.670Z,3.00
2018-12-18T20:43:42.838Z,3.00
2018-12-18T20:46:11.113Z,3.00
2018-12-18T20:48:39.935Z,2.90
2018-12-18T20:51:09.081Z,2.90
2018-12-18T20:53:37.414Z,2.90
2018-12-18T20:56:06.077Z,2.90
2018-12-18T20:58:34.328Z,2.90
2018-12-18T21:01:02.498Z,2.80
2018-12-18T21:03:30.629Z,2.80
2018-12-18T21:05:59.374Z,2.80
2018-12-18T21:08:29.416Z,2.80
2018-12-18T21:10:57.719Z,2.80
2018-12-18T21:13:29.623Z,2.80
2018-12-18T21:15:58.520Z,2.70
2018-12-18T21:18:26.661Z,2.70
2018-12-18T21:20:54.842Z,2.70
2018-12-18T21:23:23.019Z,2.60
2018-12-18T21:25:51.141Z,2.60
2018-12-18T21:28:19.294Z,2.50
2018-12-18T21:30:48.005Z,2.50
2018-12-18T21:33:16.530Z,2.40
2018-12-18T21:35:44.674Z,2.40
2018-12-18T21:38:12.837Z,2.40
2018-12-18T21:40:41.020Z,2.30
2018-12-18T21:43:09.110Z,2.30
2018-12-18T21:45:37.248Z,2.30
2018-12-18T21:48:05.336Z,2.20
2018-12-18T21:50:33.544Z,2.20
2018-12-18T21:53:01.931Z,2.20
2018-12-18T21:55:30.090Z,2.10
2018-12-18T21:57:58.485Z,2.10
2018-12-18T22:00:27.174Z,2.10
2018-12-18T22:02:55.381Z,2.10
2018-12-18T22:05:23.602Z,2.10
2018-12-18T22:07:51.843Z,2.10
2018-12-18T22:10:22.553Z,2.00
2018-12-18T22:12:50.681Z,2.00
2018-12-18T22:15:18.826Z,2.00
2018-12-18T22:17:46.987Z,2.00
2018-12-18T22:20:15.405Z,1.90
2018-12-18T22:22:43.504Z,1.90
2018-12-18T22:25:11.705Z,1.90
2018-12-18T22:27:40.677Z,1.90
2018-12-18T22:30:09.191Z,1.80
2018-12-18T22:32:38.188Z,1.80
2018-12-18T22:35:06.334Z,1.80
2018-12-18T22:37:34.406Z,1.80
2018-12-18T22:40:03.074Z,1.70
2018-12-18T22:42:31.166Z,1.70
2018-12-18T22:44:59.353Z,1.80
2018-12-18T22:47:28.344Z,1.70
2018-12-18T22:49:56.432Z,1.70
2018-12-18T22:52:24.488Z,1.70
2018-12-18T22:54:52.660Z,1.70
2018-12-18T22:57:20.759Z,1.70
2018-12-18T22:59:48.881Z,1.60
2018-12-18T23:02:17.183Z,1.60
2018-12-18T23:04:45.925Z,1.60
2018-12-18T23:07:14.255Z,1.60
2018-12-18T23:09:42.387Z,1.60
2018-12-18T23:12:10.567Z,1.50
2018-12-18T23:14:38.689Z,1.60
2018-12-18T23:17:06.913Z,1.50
2018-12-18T23:19:35.076Z,1.60
2018-12-18T23:22:03.174Z,1.50
2018-12-18T23:24:31.270Z,1.50
2018-12-18T23:29:58.588Z,1.50
2018-12-18T23:32:26.719Z,1.50
2018-12-18T23:34:55.169Z,1.50
2018-12-18T23:37:23.530Z,1.40
2018-12-18T23:39:51.697Z,1.50
2018-12-18T23:42:19.856Z,1.40
2018-12-18T23:44:48.031Z,1.40
2018-12-18T23:47:16.201Z,1.40
2018-12-18T23:49:44.409Z,1.40
2018-12-18T23:52:13.029Z,1.40
2018-12-18T23:54:41.194Z,1.40
2018-12-18T23:57:09.357Z,1.40
2018-12-18T23:59:38.455Z,1.40
